Pickering, United Kingdom
Current Conditions -  °F | °C
As of 8:50 PM on Monday 24 Nov 2014 (Local Time) from EGXU Reporting Station
Broken Clouds Broken Clouds  
Wind Chill: 39°   Ceiling: 16000
Heat Index: 39°   Visibility: 4mi
Dew Point: 37°   Wind: 2mph
Humidity: 93%   Direction: 150°SSE
Pressure: 30.3"   Gusts: NA
Location:  54.25°N, 0.77°W
Report Text: EGXU 242050Z AUTO 15002KT 7000 // BKN160/// BKN230/// 04/03 Q1026
Loading
Personal Weather Stations






























Interactive Weather Map New forecast layout! Learn more

10-Day Weather Forecast

Advertisements
Track Severe Weather on mobile